createdAt,value
2019-01-04T00:02:40.162Z,-1.9
2019-01-04T00:07:39.962Z,-1.8
2019-01-04T00:12:39.975Z,-1.8
2019-01-04T00:17:39.959Z,-1.9
2019-01-04T00:22:39.973Z,-1.9
2019-01-04T00:27:39.982Z,-2
2019-01-04T00:32:39.973Z,-2
2019-01-04T00:37:39.992Z,-2.1
2019-01-04T00:42:39.961Z,-2.2
2019-01-04T00:47:40.004Z,-2.3
2019-01-04T00:52:39.992Z,-2.4
2019-01-04T00:57:39.981Z,-2.5
2019-01-04T01:02:39.990Z,-2.6
2019-01-04T01:07:39.987Z,-2.6
2019-01-04T01:12:39.997Z,-2.6
2019-01-04T01:17:39.999Z,-2.6
2019-01-04T01:22:39.992Z,-2.7
2019-01-04T01:27:40.032Z,-2.7
2019-01-04T01:32:39.965Z,-2.7
2019-01-04T01:37:39.999Z,-2.8
2019-01-04T01:42:40.010Z,-2.9
2019-01-04T01:47:40.030Z,-2.9
2019-01-04T01:52:40.017Z,-3
2019-01-04T01:57:40.018Z,-3.1
2019-01-04T02:02:40.017Z,-3
2019-01-04T02:07:40.026Z,-2.9
2019-01-04T02:12:40.049Z,-2.8
2019-01-04T02:17:40.041Z,-2.7
2019-01-04T02:22:40.079Z,-2.6
2019-01-04T02:27:40.015Z,-2.5
2019-01-04T02:32:40.040Z,-2.4
2019-01-04T02:37:40.038Z,-2.4
2019-01-04T02:42:40.045Z,-2.4
2019-01-04T02:47:40.040Z,-2.4
2019-01-04T02:52:40.052Z,-2.4
2019-01-04T02:57:40.054Z,-2.4
2019-01-04T03:02:40.055Z,-2.4
2019-01-04T03:07:40.055Z,-2.5
2019-01-04T03:12:40.063Z,-2.6
2019-01-04T03:17:40.009Z,-2.7
2019-01-04T03:22:40.057Z,-2.8
2019-01-04T03:27:40.054Z,-2.9
2019-01-04T03:32:40.075Z,-3
2019-01-04T03:37:40.070Z,-3.2
2019-01-04T03:42:40.089Z,-3.3
2019-01-04T03:47:40.073Z,-3.4
2019-01-04T03:52:40.038Z,-3.6
2019-01-04T03:57:40.067Z,-3.5
2019-01-04T04:02:40.088Z,-3.5
2019-01-04T04:07:40.079Z,-3.5
2019-01-04T04:12:40.083Z,-3.6
2019-01-04T04:17:40.089Z,-3.6
2019-01-04T04:22:40.099Z,-3.6
2019-01-04T04:27:40.092Z,-3.7
2019-01-04T04:32:40.087Z,-3.8
2019-01-04T04:37:40.082Z,-3.8
2019-01-04T04:42:40.111Z,-4
2019-01-04T04:47:41.341Z,-4
2019-01-04T04:52:41.359Z,-4.1
2019-01-04T04:57:41.342Z,-4.1
2019-01-04T05:02:41.356Z,-4
2019-01-04T05:07:41.360Z,-3.9
2019-01-04T05:12:41.363Z,-4
2019-01-04T05:17:41.360Z,-4
2019-01-04T05:22:41.358Z,-4.1
2019-01-04T05:27:41.363Z,-4.1
2019-01-04T05:32:41.346Z,-4.1
2019-01-04T05:37:41.354Z,-4
2019-01-04T05:42:41.381Z,-4
2019-01-04T05:47:41.374Z,-3.9
2019-01-04T05:52:41.389Z,-3.8
2019-01-04T05:57:41.381Z,-3.7
2019-01-04T06:02:41.380Z,-3.6
2019-01-04T06:07:41.389Z,-3.5
2019-01-04T06:12:41.393Z,-3.4
2019-01-04T06:17:41.375Z,-3.3
2019-01-04T06:22:41.389Z,-3.2
2019-01-04T06:27:41.384Z,-3.2
2019-01-04T06:32:41.392Z,-3.2
2019-01-04T06:37:41.399Z,-3.2
2019-01-04T06:42:41.392Z,-3.2
2019-01-04T06:47:41.396Z,-3.2
2019-01-04T06:52:41.400Z,-3.2
2019-01-04T06:57:41.418Z,-3.1
2019-01-04T07:02:41.404Z,-3
2019-01-04T07:07:41.421Z,-2.9
2019-01-04T07:12:41.430Z,-2.8
2019-01-04T07:17:41.421Z,-2.7
2019-01-04T07:22:41.499Z,-2.6
2019-01-04T07:27:42.077Z,-2.4
2019-01-04T07:32:41.431Z,-2.3
2019-01-04T07:37:41.492Z,-2.2
2019-01-04T07:42:41.428Z,-2
2019-01-04T07:47:41.447Z,-1.9
2019-01-04T07:52:41.437Z,-1.8
2019-01-04T07:57:41.442Z,-1.7
2019-01-04T08:02:41.422Z,-1.5
2019-01-04T08:07:41.650Z,-1.4
2019-01-04T08:12:41.512Z,-1.4
2019-01-04T08:17:41.491Z,-1.3
2019-01-04T08:22:41.499Z,-1.2
2019-01-04T08:27:41.460Z,-1.1
2019-01-04T08:32:41.407Z,-1
2019-01-04T08:37:41.462Z,-0.9
2019-01-04T08:42:41.485Z,-0.9
2019-01-04T08:47:41.471Z,-0.8
2019-01-04T08:52:41.470Z,-0.7
2019-01-04T08:57:41.463Z,-0.6
2019-01-04T09:02:41.481Z,-0.5
2019-01-04T09:07:41.500Z,-0.4
2019-01-04T09:12:41.428Z,-0.4
2019-01-04T09:17:41.466Z,-0.4
2019-01-04T09:22:41.500Z,-0.3
2019-01-04T09:27:41.492Z,-0.1
2019-01-04T09:32:41.498Z,-0.1
2019-01-04T09:37:41.476Z,0
2019-01-04T09:42:41.517Z,0
2019-01-04T09:47:41.481Z,0
2019-01-04T09:52:41.493Z,0.2
2019-01-04T09:57:41.525Z,0.3
2019-01-04T10:02:41.593Z,0.2
2019-01-04T10:07:41.535Z,0.3
2019-01-04T10:12:41.502Z,0.5
2019-01-04T10:17:41.528Z,0.4
2019-01-04T10:22:41.511Z,0.3
2019-01-04T10:27:41.512Z,0.5
2019-01-04T10:32:41.553Z,0.4
2019-01-04T10:37:41.545Z,0.4
2019-01-04T10:42:41.529Z,0.5
2019-01-04T10:47:41.510Z,0.5
2019-01-04T10:52:41.539Z,0.6
2019-01-04T10:57:41.531Z,0.8
2019-01-04T11:02:41.545Z,0.9
2019-01-04T11:07:41.545Z,0.7
2019-01-04T11:12:41.552Z,0.7
2019-01-04T11:17:41.553Z,0.8
2019-01-04T11:22:41.559Z,4.3
2019-01-04T11:27:41.561Z,4.1
2019-01-04T11:32:41.571Z,4.4
2019-01-04T11:37:41.633Z,4.1
2019-01-04T11:42:41.912Z,4.1
2019-01-04T11:47:41.572Z,4.1
2019-01-04T11:52:42.330Z,4.2
2019-01-04T11:57:41.541Z,4.1
2019-01-04T12:02:41.582Z,4.2
2019-01-04T12:07:41.580Z,4.3
2019-01-04T12:12:41.571Z,4.3
2019-01-04T12:17:41.572Z,4.2
2019-01-04T12:22:41.573Z,4.3
2019-01-04T12:27:41.604Z,4
2019-01-04T12:32:41.606Z,3.9
2019-01-04T12:37:42.606Z,4.2
2019-01-04T12:42:41.646Z,4.3
2019-01-04T12:47:41.995Z,4.2
2019-01-04T12:52:42.041Z,4.4
2019-01-04T12:57:42.052Z,4.3
2019-01-04T13:02:41.614Z,4.3
2019-01-04T13:07:41.607Z,4.2
2019-01-04T13:12:41.631Z,4.2
2019-01-04T13:17:41.615Z,1.9
2019-01-04T13:22:41.651Z,1.6
2019-01-04T13:27:41.623Z,1.4
2019-01-04T13:32:41.602Z,1.4
2019-01-04T13:37:41.640Z,1.4
2019-01-04T13:42:42.005Z,1.3
2019-01-04T13:47:42.012Z,1.3
2019-01-04T13:52:41.698Z,1.2
2019-01-04T13:57:41.636Z,1.2
2019-01-04T14:02:41.661Z,1
2019-01-04T14:07:41.586Z,1.1
2019-01-04T14:12:41.649Z,0.9
2019-01-04T14:17:44.379Z,0.9
2019-01-04T14:22:42.044Z,0.9
2019-01-04T14:27:41.646Z,0.9
2019-01-04T14:32:41.658Z,0.9
2019-01-04T14:37:41.609Z,0.8
2019-01-04T14:42:41.644Z,0.7
2019-01-04T14:47:42.045Z,0.7
2019-01-04T14:52:42.101Z,0.6
2019-01-04T14:57:42.066Z,0.6
2019-01-04T15:02:41.649Z,0.6
2019-01-04T15:07:41.679Z,0.7
2019-01-04T15:12:41.627Z,0.7
2019-01-04T15:17:41.672Z,0.6
2019-01-04T15:22:41.675Z,0.7
2019-01-04T15:27:41.669Z,0.6
2019-01-04T15:32:41.679Z,0.6
2019-01-04T15:37:41.679Z,0.6
2019-01-04T15:42:41.675Z,0.5
2019-01-04T15:47:41.684Z,0.5
2019-01-04T15:52:41.992Z,0.5
2019-01-04T15:57:42.013Z,0.4
2019-01-04T16:02:41.690Z,0.4
2019-01-04T16:07:41.708Z,0.5
2019-01-04T16:12:41.698Z,0.4
2019-01-04T16:17:41.706Z,0.4
2019-01-04T16:22:41.896Z,0.4
2019-01-04T16:27:41.713Z,0.3
2019-01-04T16:32:41.917Z,0.2
2019-01-04T16:37:42.158Z,0.2
2019-01-04T16:42:41.734Z,0.2
2019-01-04T16:47:41.725Z,0.1
2019-01-04T16:52:41.727Z,0.1
2019-01-04T16:57:41.729Z,0.2
2019-01-04T17:02:41.713Z,0.2
2019-01-04T17:07:41.696Z,0.2
2019-01-04T17:12:41.719Z,0.2
2019-01-04T17:17:42.211Z,0.4
2019-01-04T17:22:41.939Z,0.5
2019-01-04T17:27:42.338Z,0.5
2019-01-04T17:32:41.887Z,0.5
2019-01-04T17:37:41.832Z,1.6
2019-01-04T17:42:41.758Z,0.4
2019-01-04T17:47:42.248Z,1.1
2019-01-04T17:52:41.751Z,0.3
2019-01-04T17:57:41.764Z,0.2
2019-01-04T18:02:42.110Z,0.2
2019-01-04T18:07:41.766Z,0.2
2019-01-04T18:12:41.801Z,0.1
2019-01-04T18:17:41.787Z,0.1
2019-01-04T18:22:41.787Z,0.2
2019-01-04T18:27:41.781Z,0.2
2019-01-04T18:32:41.826Z,0.6
2019-01-04T18:37:41.777Z,0.3
2019-01-04T18:42:41.838Z,0.6
2019-01-04T18:47:41.737Z,0.4
2019-01-04T18:52:41.795Z,0.4
2019-01-04T18:57:41.863Z,0.4
2019-01-04T19:02:41.829Z,0.4
2019-01-04T19:07:41.840Z,0.4
2019-01-04T19:12:41.815Z,0.4
2019-01-04T19:17:41.832Z,0.4
2019-01-04T19:22:41.811Z,0.4
2019-01-04T19:27:41.870Z,0.4
2019-01-04T19:32:41.828Z,0.4
2019-01-04T19:37:41.991Z,0.4
2019-01-04T19:42:41.831Z,0.4
2019-01-04T19:47:41.840Z,0.4
2019-01-04T19:52:41.928Z,0.4
2019-01-04T19:57:41.847Z,0.4
2019-01-04T20:02:41.882Z,0.5
2019-01-04T20:07:42.478Z,0.5
2019-01-04T20:12:41.996Z,0.4
2019-01-04T20:17:41.871Z,0.5
2019-01-04T20:22:41.833Z,0.5
2019-01-04T20:27:41.887Z,0.5
2019-01-04T20:32:41.897Z,0.5
2019-01-04T20:37:41.871Z,0.5
2019-01-04T20:42:42.238Z,0.5
2019-01-04T20:47:42.034Z,0.6
2019-01-04T20:52:41.851Z,0.6
2019-01-04T20:57:41.866Z,0.6
2019-01-04T21:02:41.941Z,0.5
2019-01-04T21:07:42.771Z,0.5
2019-01-04T21:12:41.887Z,0.6
2019-01-04T21:17:41.921Z,0.6
2019-01-04T21:22:41.922Z,1.1
2019-01-04T21:27:41.909Z,0.9
2019-01-04T21:32:41.912Z,0.8
2019-01-04T21:37:41.989Z,0.8
2019-01-04T21:42:41.929Z,0.9
2019-01-04T21:47:41.884Z,0.9
2019-01-04T21:52:41.947Z,0.9
2019-01-04T21:57:41.931Z,0.9
2019-01-04T22:02:41.910Z,1
2019-01-04T22:07:41.898Z,1
2019-01-04T22:12:41.907Z,1
2019-01-04T22:17:41.942Z,1
2019-01-04T22:22:41.956Z,1.1
2019-01-04T22:27:41.917Z,1.1
2019-01-04T22:32:41.911Z,1.2
2019-01-04T22:37:41.947Z,1.1
2019-01-04T22:42:41.927Z,1.2
2019-01-04T22:47:41.954Z,1.1
2019-01-04T22:52:41.999Z,1.2
2019-01-04T22:57:41.936Z,1.1
2019-01-04T23:02:41.924Z,1.1
2019-01-04T23:07:41.943Z,1.1
2019-01-04T23:12:41.936Z,1.2
2019-01-04T23:17:41.936Z,1.2
2019-01-04T23:22:41.939Z,1.3
2019-01-04T23:27:41.948Z,1.3
2019-01-04T23:32:41.977Z,1.3
2019-01-04T23:37:41.963Z,1.3
2019-01-04T23:42:41.960Z,1.4
2019-01-04T23:47:41.943Z,1.4
2019-01-04T23:52:41.931Z,1.4
2019-01-04T23:57:41.967Z,1.3
